Map

Track Data

SID SEASON NUMBER BASIN SUBBASIN NAME ISO_TIME NATURE LAT LON WMO_WIND WMO_PRES WMO_AGENCY TRACK_TYPE DIST2LAND LANDFALL IFLAG USA_AGENCY USA_ATCF_ID USA_LAT USA_LON USA_RECORD USA_STATUS USA_WIND USA_PRES USA_SSHS USA_R34_NE USA_R34_SE USA_R34_SW USA_R34_NW USA_R50_NE USA_R50_SE USA_R50_SW USA_R50_NW USA_R64_NE USA_R64_SE USA_R64_SW USA_R64_NW USA_POCI USA_ROCI USA_RMW USA_EYE TOKYO_LAT TOKYO_LON TOKYO_GRADE TOKYO_WIND TOKYO_PRES TOKYO_R50_DIR TOKYO_R50_LONG TOKYO_R50_SHORT TOKYO_R30_DIR TOKYO_R30_LONG TOKYO_R30_SHORT TOKYO_LAND CMA_LAT CMA_LON CMA_CAT CMA_WIND CMA_PRES HKO_LAT HKO_LON HKO_CAT HKO_WIND HKO_PRES NEWDELHI_LAT NEWDELHI_LON NEWDELHI_GRADE NEWDELHI_WIND NEWDELHI_PRES NEWDELHI_CI NEWDELHI_DP NEWDELHI_POCI REUNION_LAT REUNION_LON REUNION_TYPE REUNION_WIND REUNION_PRES REUNION_TNUM REUNION_CI REUNION_RMW REUNION_R34_NE REUNION_R34_SE REUNION_R34_SW REUNION_R34_NW REUNION_R50_NE REUNION_R50_SE REUNION_R50_SW REUNION_R50_NW REUNION_R64_NE REUNION_R64_SE REUNION_R64_SW REUNION_R64_NW BOM_LAT BOM_LON BOM_TYPE BOM_WIND BOM_PRES BOM_TNUM BOM_CI BOM_RMW BOM_R34_NE BOM_R34_SE BOM_R34_SW BOM_R34_NW BOM_R50_NE BOM_R50_SE BOM_R50_SW BOM_R50_NW BOM_R64_NE BOM_R64_SE BOM_R64_SW BOM_R64_NW BOM_ROCI BOM_POCI BOM_EYE BOM_POS_METHOD BOM_PRES_METHOD NADI_LAT NADI_LON NADI_CAT NADI_WIND NADI_PRES WELLINGTON_LAT WELLINGTON_LON WELLINGTON_WIND WELLINGTON_PRES DS824_LAT DS824_LON DS824_STAGE DS824_WIND DS824_PRES TD9636_LAT TD9636_LON TD9636_STAGE TD9636_WIND TD9636_PRES TD9635_LAT TD9635_LON TD9635_WIND TD9635_PRES TD9635_ROCI NEUMANN_LAT NEUMANN_LON NEUMANN_CLASS NEUMANN_WIND NEUMANN_PRES MLC_LAT MLC_LON MLC_CLASS MLC_WIND MLC_PRES USA_GUST BOM_GUST BOM_GUST_PER REUNION_GUST REUNION_GUST_PER USA_SEAHGT USA_SEARAD_NE USA_SEARAD_SE USA_SEARAD_SW USA_SEARAD_NW STORM_SPEED STORM_DIR
1979002S04179 1979 1 SP MM GORDON 1979-01-02 00:00:00 TS -4.20000 179.100 main 1346 1315 O________OO_O_ jtwc_sh SH061979 -4.20000 179.100 35 0 -4.20000 179.100 TC 35 -4.20000 179.100 2 35 -4.20000 179.100 TC 20 12 237
1979002S04179 1979 1 SP MM GORDON 1979-01-02 03:00:00 TS -4.51442 178.612 main 1316 1288 P________PP_P_ SH061979 -4.50760 178.600 35 0 -4.50760 178.600 TC 35 -4.53739 178.646 2 -4.50510 178.600 TC 22 12 238
1979002S04179 1979 1 SP MM GORDON 1979-01-02 06:00:00 TS -4.80994 178.116 main 1290 1273 O________OP_O_ jtwc_sh SH061979 -4.80000 178.100 35 0 -4.80000 178.100 TC 35 -4.83975 178.163 2 -4.80000 178.100 TC 25 12 242
1979002S04179 1979 1 SP MM GORDON 1979-01-02 09:00:00 TS -5.05922 177.597 main 1266 1261 P________PP_P_ SH061979 -5.05238 177.588 35 0 -5.05238 177.588 TC 35 -5.07225 177.624 2 -5.05988 177.588 TC 27 12 251
1979002S04179 1979 1 SP MM GORDON 1979-01-02 12:00:00 TS -5.20000 177.000 main 1269 1269 O________OO_O_ jtwc_sh SH061979 -5.20000 177.000 35 0 -5.20000 177.000 TC 35 -5.20000 177.000 2 -5.20000 177.000 TC 30 13 265
1979002S04179 1979 1 SP MM GORDON 1979-01-02 15:00:00 TS -5.16685 176.274 main 1289 1289 P________PP_P_ SH061979 -5.17253 176.272 35 0 -5.17253 176.272 TC 35 -5.20729 176.279 2 -5.11503 176.272 TC 32 15 274
1979002S04179 1979 1 SP MM GORDON 1979-01-02 18:00:00 TS -5.08890 175.503 main 1328 1328 O________OP_O_ jtwc_sh SH061979 -5.10000 175.500 35 0 -5.10000 175.500 TC 35 -5.15562 175.512 2 -5.00000 175.500 TC 35 15 273
1979002S04179 1979 1 SP MM GORDON 1979-01-02 21:00:00 TS -5.07902 174.755 main 1355 1344 P________PP_P_ SH061979 -5.08251 174.755 35 0 -5.08251 174.755 TC 35 -5.12606 174.763 2 -5.02502 174.748 TC 35 13 266
1979002S04179 1979 1 SP MM GORDON 1979-01-03 00:00:00 TS -5.18824 174.212 30 997 wellington main 1344 1298 O_______OOO_O_ jtwc_sh SH061979 -5.20000 174.100 35 0 -5.00000 176.000 30 997 -5.20000 174.100 TC 35 -5.20000 174.100 2 35 -5.20000 174.100 TC 35 10 243
1979002S04179 1979 1 SP MM GORDON 1979-01-03 03:00:00 TS -5.53684 173.841 main 1291 1233 P_______PPP_P_ SH061979 -5.54740 173.598 35 0 -5.54686 175.680 30 997 -5.54740 173.598 TC 35 -5.49269 173.595 2 -5.55486 173.655 TC 35 10 219
1979002S04179 1979 1 SP MM GORDON 1979-01-03 06:00:00 TS -5.98962 173.555 main 1233 1177 O_______POP_O_ jtwc_sh SH061979 -6.00000 173.200 35 0 -6.07498 175.338 30 997 -6.00000 173.200 TC 35 -5.89447 173.180 2 -6.00000 173.300 TC 35 11 213
1979002S04179 1979 1 SP MM GORDON 1979-01-03 09:00:00 TS -6.42740 173.268 main 1177 1115 P_______PPP_P_ SH061979 -6.40744 172.835 35 0 -6.56561 174.952 30 997 -6.40744 172.835 TC 35 -6.34904 172.826 2 -6.40748 172.892 TC 35 11 217
1979002S04179 1979 1 SP MM GORDON 1979-01-03 12:00:00 TS -6.84000 172.900 30 997 wellington main 1115 1053 O_______OOO_O_ jtwc_sh SH061979 -6.80000 172.500 35 0 -7.00000 174.500 30 997 -6.80000 172.500 TC 35 -6.80000 172.500 2 -6.80000 172.500 TC 35 11 224
1979002S04179 1979 1 SP MM GORDON 1979-01-03 15:00:00 TS -7.19815 172.507 main 1053 1001 P_______PPP_P_ SH061979 -7.15749 172.142 37 0 -7.37029 173.966 32 995 -7.15749 172.142 TC 37 -7.14800 172.149 2 -7.15747 172.135 TC 35 11 228
1979002S04179 1979 1 SP MM GORDON 1979-01-03 18:00:00 TS -7.53945 172.116 main 1001 945 O_______POP_O_ jtwc_sh SH061979 -7.50000 171.800 40 0 -7.71240 173.361 35 993 -7.50000 171.800 TC 40 -7.48484 171.820 2 -7.50000 171.800 TC 35 10 228
1979002S04179 1979 1 SP MM GORDON 1979-01-03 21:00:00 TS -7.88149 171.737 main 939 894 P_______PPP_P_ SH061979 -7.83496 171.492 40 0 -8.07328 172.700 37 991 -7.83496 171.492 TC 40 -7.82927 171.505 2 -7.83496 171.492 TC 37 10 226
1979002S04179 1979 1 SP MM GORDON 1979-01-04 00:00:00 TS -8.26000 171.360 40 990 wellington main 884 823 O_______OOO_O_ jtwc_sh SH061979 -8.20000 171.200 40 0 -8.50000 172.000 40 990 -8.20000 171.200 TC 40 -8.20000 171.200 2 40 -8.20000 171.200 TC 40 12 222
1979002S04179 1979 1 SP MM GORDON 1979-01-04 03:00:00 TS -8.73872 170.962 main 823 752 P_______PPP_P_ SH061979 -8.63498 170.900 40 0 -9.13512 171.207 40 990 -8.63498 170.900 TC 40 -8.65356 170.905 2 -8.63498 170.900 TC 37 13 219
1979002S04179 1979 1 SP MM GORDON 1979-01-04 06:00:00 TS -9.25121 170.561 main 743 682 O_______POP_O_ jtwc_sh SH061979 -9.10000 170.600 40 0 -9.82629 170.391 40 990 -9.10000 170.600 TC 40 -9.12973 170.615 2 -9.10000 170.600 TC 35 13 217
1979002S04179 1979 1 SP MM GORDON 1979-01-04 09:00:00 TS -9.75901 170.174 main 672 612 P_______PPP_P_ SH061979 -9.57245 170.307 40 0 -10.4792 169.629 40 990 -9.57245 170.307 TC 40 -9.59105 170.317 2 -9.57995 170.307 TC 35 12 218
1979002S04179 1979 1 SP MM GORDON 1979-01-04 12:00:00 TS -10.2000 169.800 40 990 wellington main 612 565 O_______OOO_O_ jtwc_sh SH061979 -10.0000 170.000 40 0 -11.0000 169.000 40 990 -10.0000 170.000 TC 40 -10.0000 170.000 2 -10.0000 170.000 TC 35 10 224
1979002S04179 1979 1 SP MM GORDON 1979-01-04 15:00:00 TS -10.5068 169.443 main 559 523 P_______PPP_P_ SH061979 -10.3375 169.665 42 0 -11.2513 168.588 43 987 -10.3375 169.665 TC 42 -10.3279 169.634 2 -10.2800 169.665 TC 37 9 232
1979002S04179 1979 1 SP MM GORDON 1979-01-04 18:00:00 TS -10.7332 169.094 main 523 487 O_______POP_O_ jtwc_sh SH061979 -10.6000 169.300 45 0 -11.3686 168.318 47 985 -10.6000 169.300 TC 45 -10.5976 169.250 2 -10.5000 169.300 TC 40 8 238
1979002S04179 1979 1 SP MM GORDON 1979-01-04 21:00:00 TS -10.9356 168.736 main 482 447 P_______PPP_P_ SH061979 -10.8300 168.893 45 0 -11.4267 168.139 51 982 -10.8300 168.893 TC 45 -10.8185 168.866 2 -10.7725 168.893 TC 42 8 242
1979002S04179 1979 1 SP MM GORDON 1979-01-05 00:00:00 TS -11.1000 168.400 55 980 wellington main 447 424 O_______OOO_O_ jtwc_sh SH061979 -11.0000 168.500 45 0 -11.5000 168.000 55 980 -11.0000 168.500 TC 45 -11.0000 168.500 2 45 -11.0000 168.500 TC 45 7 244
1979002S04179 1979 1 SP MM GORDON 1979-01-05 03:00:00 TS -11.2333 168.106 main 424 405 P_______PPP_P_ SH061979 -11.1074 168.185 47 0 -11.7083 167.813 55 980 -11.1074 168.185 TC 47 -11.1283 168.162 2 -11.1149 168.185 TC 42 6 245
1979002S04179 1979 1 SP MM GORDON 1979-01-05 06:00:00 TS -11.3540 167.840 main 391 374 O_______POP_O_ jtwc_sh SH061979 -11.2000 167.900 50 0 -11.9424 167.655 55 980 -11.2000 167.900 TC 50 -11.2274 167.847 2 -11.2000 167.900 TC 40 6 243
1979002S04179 1979 1 SP MM GORDON 1979-01-05 09:00:00 TS -11.4956 167.571 main 374 344 P_______PPP_P_ SH061979 -11.3200 167.592 50 0 -12.1802 167.519 55 980 -11.3200 167.592 TC 50 -11.3378 167.559 2 -11.3200 167.592 TC 37 6 237
1979002S04179 1979 1 SP MM GORDON 1979-01-05 12:00:00 TS -11.6800 167.320 55 980 wellington main 344 318 O_______OOO_O_ jtwc_sh SH061979 -11.5000 167.300 50 0 -12.4000 167.400 55 980 -11.5000 167.300 TC 50 -11.5000 167.300 2 -11.5000 167.300 TC 35 6 228
1979002S04179 1979 1 SP MM GORDON 1979-01-05 15:00:00 TS -11.9257 167.085 main 318 281 P_______PPP_P_ SH061979 -11.7700 167.028 52 0 -12.5553 167.289 57 977 -11.7700 167.028 TC 52 -11.7634 167.051 2 -11.7700 167.028 TC 40 7 219
1979002S04179 1979 1 SP MM GORDON 1979-01-05 18:00:00 TS -12.2150 166.885 main 281 246 O_______POP_O_ jtwc_sh SH061979 -12.1000 166.800 55 0 -12.6924 167.192 60 975 -12.1000 166.800 TC 55 -12.0824 166.833 2 -12.1000 166.800 TC 45 7 211
1979002S04179 1979 1 SP MM GORDON 1979-01-05 21:00:00 TS -12.5192 166.726 main 246 212 P_______PPP_P_ SH061979 -12.4425 166.627 57 0 -12.8334 167.099 62 972 -12.4425 166.627 TC 57 -12.4353 166.648 2 -12.4425 166.627 TC 52 7 204
1979002S04179 1979 1 SP MM GORDON 1979-01-06 00:00:00 TS -12.8400 166.600 65 970 wellington main 212 179 O_______OOO_O_ jtwc_sh SH061979 -12.8000 166.500 60 0 -13.0000 167.000 65 970 -12.8000 166.500 TC 60 -12.8000 166.500 2 60 -12.8000 166.500 TC 60 7 201
1979002S04179 1979 1 SP MM GORDON 1979-01-06 03:00:00 TS -13.1433 166.484 main 179 147 P_______PPP_P_ SH061979 -13.1500 166.385 62 0 -13.1604 166.882 66 968 -13.1500 166.385 TC 62 -13.1062 166.385 2 -13.1500 166.385 TC 60 7 198
1979002S04179 1979 1 SP MM GORDON 1979-01-06 06:00:00 TS -13.4565 166.392 main 136 105 O_______POP_O_ jtwc_sh SH061979 -13.5000 166.300 65 1 -13.3576 166.757 67 967 -13.5000 166.300 TC 65 -13.4250 166.305 2 -13.5000 166.300 TC 60 7 194
1979002S04179 1979 1 SP MM GORDON 1979-01-06 09:00:00 TS -13.7734 166.321 main 105 74 P_______PPP_P_ SH061979 -13.8200 166.242 65 1 -13.6260 166.629 68 966 -13.8200 166.242 TC 65 -13.7812 166.247 2 -13.8200 166.242 TC 62 7 190
1979002S04179 1979 1 SP MM GORDON 1979-01-06 12:00:00 TS -14.1600 166.260 70 965 wellington main 64 34 O_______OOO_O_ jtwc_sh SH061979 -14.2000 166.200 65 1 -14.0000 166.500 70 965 -14.2000 166.200 TC 65 -14.2000 166.200 4 -14.2000 166.200 TC 65 9 188
1979002S04179 1979 1 SP MM GORDON 1979-01-06 15:00:00 TS -14.6868 166.194 main 34 32 P_______PPP_P_ SH061979 -14.7125 166.150 67 1 -14.5739 166.395 66 968 -14.7125 166.150 TC 67 -14.7225 166.127 4 -14.7125 166.150 TC 67 11 186
1979002S04179 1979 1 SP MM GORDON 1979-01-06 18:00:00 TS -15.2895 166.130 main 53 53 O_______POP_O_ jtwc_sh SH061979 -15.3000 166.100 70 1 -15.2423 166.288 62 972 -15.3000 166.100 TC 70 -15.3051 166.063 4 -15.3000 166.100 TC 70 12 186
1979002S04179 1979 1 SP MM GORDON 1979-01-06 21:00:00 TS -15.9064 166.052 main 77 77 P_______PPP_P_ SH061979 -15.9000 166.028 72 1 -15.9146 166.161 58 976 -15.9000 166.028 TC 72 -15.9101 166.018 4 -15.9075 166.028 TC 72 12 186
1979002S04179 1979 1 SP MM GORDON 1979-01-07 00:00:00 TS -16.5000 166.000 55 980 wellington main 123 123 O_______OOO_O_ jtwc_sh SH061979 -16.5000 166.000 75 1 -16.5000 166.000 55 980 -16.5000 166.000 TC 75 -16.5000 166.000 4 75 -16.5000 166.000 TC 75 11 0
1979002S04179 1979 1 SP MM GORDON 1979-01-07 03:00:00 TS -17.0235 166.036 main 154 154 P_______PPP_P_ SH061979 -17.0725 166.092 75 1 -16.8837 165.786 51 982 -17.0725 166.092 TC 75 -17.0739 166.117 4 -17.0150 166.092 TC 72 10 176
1979002S04179 1979 1 SP MM GORDON 1979-01-07 06:00:00 TS -17.4978 166.077 main 177 177 O_______POP_O_ jtwc_sh SH061979 -17.6000 166.200 75 1 -17.1700 165.537 47 985 -17.6000 166.200 TC 75 -17.6190 166.248 4 -17.5000 166.200 TC 70 9 176
1979002S04179 1979 1 SP MM GORDON 1979-01-07 09:00:00 TS -17.9411 166.087 main 208 208 P_______PPP_P_ SH061979 -18.0873 166.290 75 1 -17.3962 165.270 43 987 -18.0873 166.290 TC 75 -18.1047 166.305 4 -18.0298 166.282 TC 67 8 188
1979002S04179 1979 1 SP MM GORDON 1979-01-07 12:00:00 TS -18.3200 165.960 40 990 wellington main 248 222 O_______OOO_O_ jtwc_sh SH061979 -18.5000 166.200 75 1 -17.6000 165.000 40 990 -18.5000 166.200 TC 75 -18.5000 166.200 4 -18.5000 166.200 TC 65 8 213
1979002S04179 1979 1 SP MM GORDON 1979-01-07 15:00:00 TS -18.6458 165.600 main 222 168 P_______PPP_P_ SH061979 -18.8601 165.790 72 1 -17.8350 164.770 40 990 -18.8601 165.790 TC 72 -18.8062 165.804 4 -18.8674 165.848 TC 65 10 236
1979002S04179 1979 1 SP MM GORDON 1979-01-07 18:00:00 TS -18.8748 165.096 main 168 144 O_______POP_O_ jtwc_sh SH061979 -19.1000 165.200 70 1 -18.0570 164.537 40 990 -19.1000 165.200 TC 70 -19.0169 165.244 4 -19.1000 165.300 TC 65 11 250
1979002S04179 1979 1 SP MM GORDON 1979-01-07 21:00:00 TS -19.0055 164.542 main 140 123 P_______PPP_P_ SH061979 -19.2027 164.585 67 1 -18.2756 164.285 40 990 -19.2027 164.585 TC 67 -19.1438 164.613 4 -19.2029 164.642 TC 65 11 260
1979002S04179 1979 1 SP MM GORDON 1979-01-08 00:00:00 TS -19.0600 164.000 40 990 wellington main 123 123 O_______OOO_O_ jtwc_sh SH061979 -19.2000 164.000 65 1 -18.5000 164.000 40 990 -19.2000 164.000 TC 65 -19.2000 164.000 4 65 -19.2000 164.000 TC 65 9 264
1979002S04179 1979 1 SP MM GORDON 1979-01-08 03:00:00 TS -19.0965 163.594 main 133 133 P_______PPP_P_ SH061979 -19.1646 163.577 62 0 -18.7910 163.702 40 990 -19.1646 163.577 TC 62 -19.1976 163.542 4 -19.1646 163.570 TC 57 7 267
1979002S04179 1979 1 SP MM GORDON 1979-01-08 06:00:00 TS -19.1036 163.216 main 154 154 O_______POP_O_ jtwc_sh SH061979 -19.1000 163.200 60 0 -19.0814 163.364 40 990 -19.1000 163.200 TC 60 -19.1364 163.119 4 -19.1000 163.200 TC 50 8 270
1979002S04179 1979 1 SP MM GORDON 1979-01-08 09:00:00 TS -19.0912 162.769 main 183 183 P_______PPP_P_ SH061979 -19.0349 162.757 57 0 -19.3313 162.968 40 990 -19.0349 162.757 TC 57 -19.0571 162.711 4 -18.9978 162.652 TC 50 8 270
1979002S04179 1979 1 SP MM GORDON 1979-01-08 12:00:00 TS -19.1000 162.340 40 990 wellington main 222 222 O_______OOO_O_ jtwc_sh SH061979 -19.0000 162.300 55 0 -19.5000 162.500 40 990 -19.0000 162.300 TC 55 -19.0000 162.300 2 -19.0000 162.300 TC 50 7 262
1979002S04179 1979 1 SP MM GORDON 1979-01-08 15:00:00 TS -19.1818 162.046 main 242 242 P_______PPP_P_ SH061979 -19.0349 161.850 52 0 -19.5198 161.966 37 991 -19.0349 161.850 TC 52 -19.0274 161.935 2 -19.2920 162.632 TC 50 6 250
1979002S04179 1979 1 SP MM GORDON 1979-01-08 17:00:00 TS -19.2607 161.871 main 246 246 P_____O_PPP_P_ SH061979 -19.0780 161.550 50 0 -19.6000 162.600 30 50 988 3.50000 -19.4855 161.569 35 992 -19.0780 161.550 TC 50 -19.0618 161.684 2 -19.5154 162.822 TC 50 69 69 6 243
1979002S04179 1979 1 SP MM GORDON 1979-01-08 18:00:00 TS -19.3120 161.776 main 255 255 O_____P_POP_O_ jtwc_sh SH061979 -19.1000 161.400 50 0 -19.6053 162.258 30 49 988 -19.4596 161.360 35 993 -19.1000 161.400 TC 50 -19.0818 161.550 2 -19.6000 162.800 TC 50 988 10 261
1979002S04179 1979 1 SP MM GORDON 1979-01-08 21:00:00 TS -19.3594 161.177 main 309 309 P_____P_PPP_P_ SH061979 -19.1568 161.010 47 0 -19.6109 161.247 30 46 989 -19.3695 160.700 32 995 -19.1568 161.010 TC 47 -19.1455 161.091 2 -19.6539 161.972 TC 47 989 12 266
1979002S04179 1979 1 SP MM GORDON 1979-01-08 23:00:00 TS -19.3788 160.681 main 359 369 P_____O_PPP_P_ SH061979 -19.1886 160.696 45 0 -19.6000 160.600 30 45 990 3.00000 -19.3178 160.237 30 996 -19.1886 160.696 TC 45 -19.1840 160.715 2 -19.6222 161.187 TC 45 989 64 64 14 268
1979002S04179 1979 1 SP MM GORDON 1979-01-09 00:00:00 TS -19.3841 160.413 30 997 wellington main 389 389 O_____P_OOO_O_ jtwc_sh SH061979 -19.2000 160.500 45 0 -19.5887 160.289 30 45 990 -19.3000 160.000 30 997 -19.2000 160.500 TC 45 -19.2000 160.500 2 45 -19.6000 160.800 TC 45 990 16 270
1979002S04179 1979 1 SP EA GORDON 1979-01-09 03:00:00 TS -19.3705 159.578 main 471 471 P_____P_PPP_P_ SH061979 -19.2075 159.732 45 0 -19.5382 159.389 30 45 990 -19.3094 159.266 30 997 -19.2075 159.732 TC 45 -19.2175 159.655 2 -19.5568 159.885 TC 45 990 16 271
1979002S04179 1979 1 SP EA GORDON 1979-01-09 05:00:00 TS -19.3565 158.987 45 990 bom main 532 542 P_____O_PPP_P_ SH061979 -19.2025 159.121 45 0 -19.5000 158.800 30 45 990 3.00000 -19.3321 158.757 30 997 -19.2025 159.121 TC 45 -19.2202 159.017 2 -19.5189 159.295 TC 45 990 64 64 17 271
1979002S04179 1979 1 SP EA GORDON 1979-01-09 06:00:00 TS -19.3501 158.683 main 563 563 O_____P_POP_O_ jtwc_sh SH061979 -19.2000 158.800 45 0 -19.4832 158.495 30 45 990 -19.3480 158.500 30 997 -19.2000 158.800 TC 45 -19.2195 158.687 2 -19.5000 159.000 TC 45 990 18 271
1979002S04179 1979 1 SP EA GORDON 1979-01-09 09:00:00 TS -19.3368 157.748 main 668 668 P_____P_PPP_P_ SH061979 -19.2005 157.778 42 0 -19.4331 157.584 30 45 990 -19.4125 157.734 30 997 -19.2005 157.778 TC 42 -19.2112 157.701 2 -19.4498 158.085 TC 45 990 17 271
1979002S04179 1979 1 SP EA GORDON 1979-01-09 11:00:00 TS -19.3294 157.144 45 990 bom main 728 717 P_____O_PPP_P_ SH061979 -19.2002 157.107 40 0 -19.4000 157.000 30 45 990 3.00000 -19.4684 157.239 30 997 -19.2002 157.107 TC 40 -19.2035 157.085 2 -19.4165 157.489 TC 45 990 64 64 17 271
1979002S04179 1979 1 SP EA GORDON 1979-01-09 12:00:00 TS -19.3258 156.858 main 717 656 O_____P_OOO_O_ jtwc_sh SH061979 -19.2000 156.800 40 0 -19.3806 156.704 30 45 990 -19.5000 157.000 30 997 -19.2000 156.800 TC 40 -19.2000 156.800 2 -19.4000 157.200 TC 45 990 15 270
1979002S04179 1979 1 SP EA GORDON 1979-01-09 15:00:00 TS -19.3211 156.068 main 656 613 P_____P_PPP_P_ SH061979 -19.1995 156.018 40 0 -19.3255 155.867 30 45 990 -19.6436 156.300 32 995 -19.1995 156.018 TC 40 -19.1944 156.072 2 -19.3425 156.332 TC 45 990 14 270
1979002S04179 1979 1 SP EA GORDON 1979-01-09 17:00:00 TS -19.3233 155.614 45 990 bom main 613 596 P_____O_PPP_P_ SH061979 -19.1998 155.589 40 0 -19.3000 155.400 30 45 990 3.00000 -19.7501 155.854 34 994 -19.1998 155.589 TC 40 -19.1916 155.644 2 -19.3110 155.821 TC 45 990 64 64 12 269
1979002S04179 1979 1 SP EA GORDON 1979-01-09 18:00:00 TS -19.3267 155.411 main 596 556 O_____P_POP_O_ jtwc_sh SH061979 -19.2000 155.400 40 0 -19.2943 155.187 30 45 990 -19.8021 155.639 35 993 -19.2000 155.400 TC 40 -19.1908 155.448 2 -19.3000 155.600 TC 45 990 10 268
1979002S04179 1979 1 SP EA GORDON 1979-01-09 21:00:00 TS -19.3436 154.885 main 556 525 P_____P_PPP_P_ SH061979 -19.1997 154.883 40 0 -19.2951 154.692 30 45 991 -19.9345 155.034 37 991 -19.1997 154.883 TC 40 -19.1919 154.925 2 -19.2922 155.038 TC 45 991 9 268
1979002S04179 1979 1 SP EA GORDON 1979-01-09 23:00:00 TS -19.3541 154.625 45 992 bom main 525 517 P_____O_PPP_P_ SH061979 -19.1999 154.614 40 0 -19.3000 154.500 30 45 992 3.00000 -19.9881 154.669 39 990 -19.1999 154.614 TC 40 -19.1964 154.631 2 -19.2973 154.786 TC 45 991 64 64 7 268
1979002S04179 1979 1 SP EA GORDON 1979-01-10 00:00:00 TS -19.3571 154.520 main 517 509 O_____P_OOO_O_ jtwc_sh SH061979 -19.2000 154.500 40 0 -19.2999 154.443 30 43 992 -20.0000 154.500 40 990 -19.2000 154.500 TC 40 -19.2000 154.500 2 40 -19.3000 154.700 TC 45 992 5 272
1979002S04179 1979 1 SP EA GORDON 1979-01-10 02:00:00 TS -19.3474 154.354 40 992 bom main 517 509 P_____O_PPP_P_ SH061979 -19.1944 154.302 40 0 -19.3000 154.400 30 40 992 3.00000 -19.9547 154.179 40 990 -19.1944 154.302 TC 40 -19.1996 154.264 2 -19.2944 154.603 TC 45 992 55 55 4 274
1979002S04179 1979 1 SP EA GORDON 1979-01-10 03:00:00 TS -19.3410 154.291 main 509 502 P_____P_PPP_P_ SH061979 -19.1923 154.220 40 0 -19.3000 154.392 30 40 992 -19.9175 154.032 40 990 -19.1923 154.220 TC 40 -19.2004 154.165 2 -19.2923 154.590 TC 45 992 3 276
1979002S04179 1979 1 SP EA GORDON 1979-01-10 05:00:00 TS -19.3295 154.187 40 992 bom main 502 494 P_____O_PPP_P_ SH061979 -19.1942 154.073 40 0 -19.3000 154.400 30 40 992 3.00000 -19.8239 153.761 40 990 -19.1942 154.073 TC 40 -19.2058 153.993 2 -19.2942 154.596 TC 45 992 55 55 3 276
1979002S04179 1979 1 SP EA GORDON 1979-01-10 06:00:00 TS -19.3253 154.137 main 494 487 O_____P_POP_O_ jtwc_sh SH061979 -19.2000 154.000 40 0 -19.2946 154.405 30 40 992 -19.7714 153.636 40 990 -19.2000 154.000 TC 40 -19.2111 153.917 2 -19.3000 154.600 TC 45 992 3 271
1979002S04179 1979 1 SP EA GORDON 1979-01-10 08:00:00 TS -19.3263 154.033 40 993 bom main 487 487 P_____O_PPP_P_ SH061979 -19.2199 153.839 38 0 -19.3000 154.400 30 40 993 3.00000 -19.6649 153.405 40 990 -19.2199 153.839 TC 38 -19.2285 153.778 2 -19.3253 154.616 TC 43 993 55 55 3 267
1979002S04179 1979 1 SP EA GORDON 1979-01-10 09:00:00 TS -19.3339 153.978 main 487 464 P_____P_PPP_P_ SH061979 -19.2349 153.757 37 0 -19.3267 154.389 30 38 993 -19.6147 153.297 40 990 -19.2349 153.757 TC 37 -19.2413 153.711 2 -19.3423 154.617 TC 42 993 4 259
1979002S04179 1979 1 SP EA GORDON 1979-01-10 11:00:00 TS -19.3597 153.844 35 995 bom main 464 464 P_____O_PPP_P_ SH061979 -19.2750 153.589 35 0 -19.4000 154.300 30 35 995 3.00000 -19.5303 153.096 40 990 -19.2750 153.589 TC 35 -19.2767 153.574 2 -19.3805 154.568 TC 40 994 49 49 4 259
1979002S04179 1979 1 SP EA GORDON 1979-01-10 12:00:00 TS -19.3752 153.757 main 464 437 O_____P_OOO_O_ jtwc_sh SH061979 -19.3000 153.500 35 0 -19.4266 154.200 30 34 995 -19.5000 153.000 40 990 -19.3000 153.500 TC 35 -19.3000 153.500 2 -19.4000 154.500 TC 40 995 6 259
1979002S04179 1979 1 SP EA GORDON 1979-01-10 15:00:00 TS -19.4371 153.418 main 437 415 P_____P_PPP_P_ SH061979 -19.3850 153.207 35 0 -19.4816 153.707 30 31 996 -19.4952 152.714 37 991 -19.3850 153.207 TC 35 -19.3978 153.336 2 -19.4576 154.083 TC 37 996 7 259
1979002S04179 1979 1 SP EA GORDON 1979-01-10 17:00:00 TS -19.4849 153.152 30 997 bom main 415 402 P_____O_PPP_P_ SH061979 -19.4583 153.003 35 0 -19.5000 153.300 20 30 997 2.50000 -19.5205 152.544 35 992 -19.4583 153.003 TC 35 -19.4792 153.213 2 -19.4891 153.702 TC 35 996 45 45 8 259
1979002S04179 1979 1 SP EA GORDON 1979-01-10 18:00:00 TS -19.5087 153.015 main 402 370 O_____P_POP_O_ jtwc_sh SH061979 -19.5000 152.900 35 0 -19.4984 153.104 20 29 997 -19.5395 152.463 35 993 -19.5000 152.900 TC 35 -19.5232 153.139 2 -19.5000 153.500 TC 35 997 8 259
1979002S04179 1979 1 SP EA GORDON 1979-01-10 21:00:00 TS -19.5816 152.600 main 370 354 P_____P_PPP_P_ SH061979 -19.6494 152.675 35 0 -19.4832 152.488 20 26 999 -19.6140 152.230 32 995 -19.6494 152.675 TC 35 -19.6622 152.823 2 -19.5103 152.897 TC 30 999 8 259
1979002S04179 1979 1 SP EA GORDON 1979-01-10 23:00:00 TS -19.6415 152.296 25 1001 bom main 354 339 P_____O_PPP_P_ SH061979 -19.7527 152.457 35 0 -19.5000 152.100 20 25 1001 2.00000 -19.6713 152.077 30 996 -19.7527 152.457 TC 35 -19.7551 152.503 2 -19.5046 152.499 TC 26 1000 45 45 9 258
1979002S04179 1979 1 SP EA GORDON 1979-01-11 00:00:00 TS -19.6795 152.128 main 335 307 O_____P_OOO_O_ jtwc_sh SH061979 -19.8000 152.300 35 0 -19.5220 151.922 20 25 1001 -19.7000 152.000 30 997 -19.8000 152.300 TC 35 -19.8000 152.300 1 30 -19.5000 152.300 TC 25 1001 10 257
1979002S04179 1979 1 SP EA GORDON 1979-01-11 02:00:00 TS -19.7574 151.780 25 1001 bom main 307 289 P_____O_PPP___ SH061979 -19.8740 151.900 33 -1 -19.6000 151.600 20 25 1001 2.00000 -19.7253 151.872 30 997 -19.8740 151.900 TC 33 -19.8842 151.801 1 TC 45 45 10 257
1979002S04179 1979 1 SP EA GORDON 1979-01-11 03:00:00 TS -19.7969 151.593 main 289 247 P_____P_PPP___ SH061979 -19.9067 151.650 32 -1 -19.6642 151.459 20 25 1001 -19.7384 151.810 30 997 -19.9067 151.650 TC 32 -19.9235 151.509 1 TC 12 258
1979002S04179 1979 1 SP EA GORDON 1979-01-11 05:00:00 TS -19.8761 151.177 25 1001 bom main 247 229 P_____O_PPP___ SH061979 -19.9687 151.050 30 -1 -19.8000 151.200 20 25 1001 2.00000 -19.7693 151.681 30 997 -19.9687 151.050 TC 30 -19.9966 150.854 1 TC 45 45 12 259
1979002S04179 1979 1 SP EA GORDON 1979-01-11 06:00:00 TS -19.9109 150.947 main 219 166 O_____P_POP___ jtwc_sh SH061979 -20.0000 150.700 30 -1 -19.8466 151.072 20 25 1001 -19.7884 151.611 30 997 -20.0000 150.700 TC 30 -20.0304 150.497 1 14 263
1979002S04179 1979 1 SP EA GORDON 1979-01-11 08:00:00 TS -19.9660 150.435 25 1001 bom main 166 156 P_____O_PPP___ SH061979 -20.0662 149.908 30 -1 -19.9000 150.800 20 25 1001 2.00000 -19.8377 151.450 30 997 -20.0662 149.908 TC 30 -20.0929 149.734 1 45 45 13 265
1979002S04179 1979 1 SP EA GORDON 1979-01-11 09:00:00 TS -19.9725 150.260 main 156 118 P_____P_PPP___ SH061979 -20.1001 149.476 30 -1 -19.9025 150.636 20 25 1001 -19.8693 151.357 30 997 -20.1001 149.476 TC 30 -20.1217 149.335 1 10 267
1979002S04179 1979 1 SP EA GORDON 1979-01-11 11:00:00 TS -19.9947 149.913 25 1001 bom main 118 118 P_____O_PPP___ SH061979 -20.1675 148.566 30 -1 -19.9000 150.300 20 25 1001 2.00000 -19.9497 151.133 30 997 -20.1675 148.566 TC 30 -20.1751 148.515 1 45 45 5 266
1979002S04179 1979 1 SP EA GORDON 1979-01-11 12:00:00 TS -19.9920 149.982 main 127 127 O_____P_OOO___ jtwc_sh SH061979 -20.2000 148.100 30 -1 -19.9200 150.159 20 25 1001 -20.0000 151.000 30 997 -20.2000 148.100 TC 30 -20.2000 148.100 6 5 101
1979002S04179 1979 1 SP EA GORDON 1979-01-11 14:00:00 TS -20.0404 150.161 25 1001 bom main 146 132 ______O_P_____ SH061979 -1 -20.0000 149.900 20 25 1001 2.00000 -20.1222 150.687 30 997 TC 6 45 45 3 160
1979002S04179 1979 1 SP EA GORDON 1979-01-11 15:00:00 TS -20.1093 150.033 main 123 86 ______P_P_____ SH061979 -1 -20.0587 149.772 20 25 1001 -20.1930 150.508 30 997 TC 6 9 241
1979002S04179 1979 1 SP EA GORDON 1979-01-11 17:00:00 TS -20.2639 149.736 25 1001 bom main 86 76 ______O_P_____ SH061979 -1 -20.2000 149.500 20 25 1001 2.00000 -20.3506 150.115 30 997 TC 6 45 45 10 241
1979002S04179 1979 1 SP EA GORDON 1979-01-11 18:00:00 TS -20.3456 149.586 main 76 41 ______P_P_____ -1 -20.2667 149.341 20 25 1001 -20.4360 149.903 30 997 6 10 240
1979002S04179 1979 1 SP EA GORDON 1979-01-11 20:00:00 NR -20.5239 149.260 25 1001 bom main 41 23 ______O_P_____ -1 -20.4000 149.000 20 25 1001 2.00000 -20.6169 149.455 30 997 6 45 45 11 241
1979002S04179 1979 1 SP EA GORDON 1979-01-11 21:00:00 NR -20.6133 149.065 main 23 0 ______P_P_____ -1 -20.4667 148.831 20 25 1001 -20.7110 149.222 30 997 6 13 244
1979002S04179 1979 1 SP EA GORDON 1979-01-11 23:00:00 NR -20.8021 148.662 25 1001 bom main 0 0 ______O_P_____ -1 -20.6000 148.500 20 25 1001 2.00000 -20.9032 148.743 30 997 6 45 45 13 234
1979002S04179 1979 1 SP EA GORDON 1979-01-12 00:00:00 NR -21.0000 148.500 main 0 ________O_____ -1 20 -21.0000 148.500 30 997 15 218

Digital Typhoon Data and Search

About IBTrACS Database

This database is a web-friendly format of International Best Track Archive for Climate Stewardship (IBTrACS), a global best track data archive curated by NOAA dating back to 1842.

Updated: 2021-10-25